<?xml version="1.0" encoding="utf-8"?>
<gpx xmlns:xsi="http://www.w3.org/2001/XMLSchema-instance" xmlns:xsd="http://www.w3.org/2001/XMLSchema" version="1.1" creator="Shapelink.com" xmlns="http://www.topografix.com/GPX/1/1" xmlns:gpxtpx="http://www.garmin.com/xmlschemas/TrackPointExtension/v1">
  <metadata>
    <name>Promenad 4.19 km, 2017-04-07</name>
    <desc></desc>
    <author><name>Morten Hedlund</name></author> 
    <time>2017-04-07T09:56:07Z</time>
  </metadata>
  <trk>
    <name>Promenad 4.19 km, 2017-04-07</name>
    <trkseg>
      <trkpt lat="59.026951974646" lon="12.224287515034">
        <ele>97.2</ele>
        <time>2017-04-07T09:56:07Z</time>
      </trkpt>
      <trkpt lat="59.026786013026" lon="12.224176957773">
        <ele>96.6</ele>
        <time>2017-04-07T09:56:22Z</time>
      </trkpt>
      <trkpt lat="59.026720466568" lon="12.224185004397">
        <ele>96.8</ele>
        <time>2017-04-07T09:56:29Z</time>
      </trkpt>
      <trkpt lat="59.026591469127" lon="12.224198247799">
        <ele>101.2</ele>
        <time>2017-04-07T09:57:30Z</time>
      </trkpt>
      <trkpt lat="59.026402708739" lon="12.22421744235">
        <ele>100.4</ele>
        <time>2017-04-07T09:57:44Z</time>
      </trkpt>
      <trkpt lat="59.026322577775" lon="12.224139574499">
        <ele>100</ele>
        <time>2017-04-07T09:57:51Z</time>
      </trkpt>
      <trkpt lat="59.026266251407" lon="12.224207551708">
        <ele>99.8</ele>
        <time>2017-04-07T09:57:56Z</time>
      </trkpt>
      <trkpt lat="59.026250996349" lon="12.224240827851">
        <ele>100</ele>
        <time>2017-04-07T09:57:58Z</time>
      </trkpt>
      <trkpt lat="59.02606315797" lon="12.2242635428">
        <ele>100.8</ele>
        <time>2017-04-07T09:58:12Z</time>
      </trkpt>
      <trkpt lat="59.025881857473" lon="12.224283575541">
        <ele>102.4</ele>
        <time>2017-04-07T09:58:28Z</time>
      </trkpt>
      <trkpt lat="59.02569686894" lon="12.224311571087">
        <ele>105</ele>
        <time>2017-04-07T09:58:43Z</time>
      </trkpt>
      <trkpt lat="59.025512215683" lon="12.224324143937">
        <ele>107.8</ele>
        <time>2017-04-07T09:58:57Z</time>
      </trkpt>
      <trkpt lat="59.025334267946" lon="12.224361275754">
        <ele>110</ele>
        <time>2017-04-07T09:59:10Z</time>
      </trkpt>
      <trkpt lat="59.025154224734" lon="12.224361443392">
        <ele>110.2</ele>
        <time>2017-04-07T09:59:24Z</time>
      </trkpt>
      <trkpt lat="59.024967392183" lon="12.224341410651">
        <ele>109.4</ele>
        <time>2017-04-07T09:59:38Z</time>
      </trkpt>
      <trkpt lat="59.024775530492" lon="12.224363622686">
        <ele>107.6</ele>
        <time>2017-04-07T09:59:52Z</time>
      </trkpt>
      <trkpt lat="59.024590877235" lon="12.224387762558">
        <ele>107.4</ele>
        <time>2017-04-07T10:00:05Z</time>
      </trkpt>
      <trkpt lat="59.024413683869" lon="12.224468731712">
        <ele>108.4</ele>
        <time>2017-04-07T10:00:18Z</time>
      </trkpt>
      <trkpt lat="59.024237161055" lon="12.224567889589">
        <ele>110.2</ele>
        <time>2017-04-07T10:00:31Z</time>
      </trkpt>
      <trkpt lat="59.024066337933" lon="12.224672747158">
        <ele>112.4</ele>
        <time>2017-04-07T10:00:45Z</time>
      </trkpt>
      <trkpt lat="59.02390900967" lon="12.224842815909">
        <ele>114.4</ele>
        <time>2017-04-07T10:00:58Z</time>
      </trkpt>
      <trkpt lat="59.023757632556" lon="12.22504557407">
        <ele>115.6</ele>
        <time>2017-04-07T10:01:13Z</time>
      </trkpt>
      <trkpt lat="59.023588737271" lon="12.225164848507">
        <ele>111.8</ele>
        <time>2017-04-07T10:01:27Z</time>
      </trkpt>
      <trkpt lat="59.023415399579" lon="12.225259396339">
        <ele>110.2</ele>
        <time>2017-04-07T10:01:41Z</time>
      </trkpt>
      <trkpt lat="59.023234601996" lon="12.225330055756">
        <ele>109.2</ele>
        <time>2017-04-07T10:01:54Z</time>
      </trkpt>
      <trkpt lat="59.023052714766" lon="12.225404989942">
        <ele>110.8</ele>
        <time>2017-04-07T10:02:06Z</time>
      </trkpt>
      <trkpt lat="59.022868899699" lon="12.225458047369">
        <ele>111.2</ele>
        <time>2017-04-07T10:02:20Z</time>
      </trkpt>
      <trkpt lat="59.022720540069" lon="12.225500962697">
        <ele>112.2</ele>
        <time>2017-04-07T10:02:32Z</time>
      </trkpt>
      <trkpt lat="59.022532785509" lon="12.225544380939">
        <ele>110.2</ele>
        <time>2017-04-07T10:02:47Z</time>
      </trkpt>
      <trkpt lat="59.022352071745" lon="12.225627194111">
        <ele>108.2</ele>
        <time>2017-04-07T10:03:01Z</time>
      </trkpt>
      <trkpt lat="59.022236904439" lon="12.225730710576">
        <ele>106.6</ele>
        <time>2017-04-07T10:03:12Z</time>
      </trkpt>
      <trkpt lat="59.02209013737" lon="12.225936318583">
        <ele>110.2</ele>
        <time>2017-04-07T10:03:26Z</time>
      </trkpt>
      <trkpt lat="59.022010006406" lon="12.226070093707">
        <ele>112.8</ele>
        <time>2017-04-07T10:03:35Z</time>
      </trkpt>
      <trkpt lat="59.022018472125" lon="12.226142597142">
        <ele>114.4</ele>
        <time>2017-04-07T10:03:38Z</time>
      </trkpt>
      <trkpt lat="59.022094412139" lon="12.226465216473">
        <ele>115</ele>
        <time>2017-04-07T10:03:53Z</time>
      </trkpt>
      <trkpt lat="59.022229947462" lon="12.226717344025">
        <ele>112.4</ele>
        <time>2017-04-07T10:04:09Z</time>
      </trkpt>
      <trkpt lat="59.022390293209" lon="12.226897722513">
        <ele>112</ele>
        <time>2017-04-07T10:04:24Z</time>
      </trkpt>
      <trkpt lat="59.022577209579" lon="12.226965280627">
        <ele>104.8</ele>
        <time>2017-04-07T10:04:38Z</time>
      </trkpt>
      <trkpt lat="59.022765634691" lon="12.226984223721">
        <ele>104.4</ele>
        <time>2017-04-07T10:04:52Z</time>
      </trkpt>
      <trkpt lat="59.022856578306" lon="12.227026971411">
        <ele>102.8</ele>
        <time>2017-04-07T10:04:59Z</time>
      </trkpt>
      <trkpt lat="59.023007620144" lon="12.227255126729">
        <ele>106.4</ele>
        <time>2017-04-07T10:05:13Z</time>
      </trkpt>
      <trkpt lat="59.02298783886" lon="12.227626696356">
        <ele>98.2</ele>
        <time>2017-04-07T10:05:26Z</time>
      </trkpt>
      <trkpt lat="59.022982474444" lon="12.227984352029">
        <ele>99.8</ele>
        <time>2017-04-07T10:05:39Z</time>
      </trkpt>
      <trkpt lat="59.022985072833" lon="12.228348461765">
        <ele>104.8</ele>
        <time>2017-04-07T10:05:52Z</time>
      </trkpt>
      <trkpt lat="59.023006781954" lon="12.228714415519">
        <ele>102.8</ele>
        <time>2017-04-07T10:06:08Z</time>
      </trkpt>
      <trkpt lat="59.023056151345" lon="12.228914323834">
        <ele>102.8</ele>
        <time>2017-04-07T10:06:18Z</time>
      </trkpt>
      <trkpt lat="59.023246252837" lon="12.228889010496">
        <ele>96.4</ele>
        <time>2017-04-07T10:06:34Z</time>
      </trkpt>
      <trkpt lat="59.023430738456" lon="12.228784991117">
        <ele>95.2</ele>
        <time>2017-04-07T10:06:48Z</time>
      </trkpt>
      <trkpt lat="59.023617654826" lon="12.228742243427">
        <ele>89.4</ele>
        <time>2017-04-07T10:07:02Z</time>
      </trkpt>
      <trkpt lat="59.023798703866" lon="12.228730927862">
        <ele>86.6</ele>
        <time>2017-04-07T10:07:16Z</time>
      </trkpt>
      <trkpt lat="59.023982099838" lon="12.228761857073">
        <ele>88.8</ele>
        <time>2017-04-07T10:07:29Z</time>
      </trkpt>
      <trkpt lat="59.024045969916" lon="12.229102497489">
        <ele>86.8</ele>
        <time>2017-04-07T10:07:44Z</time>
      </trkpt>
      <trkpt lat="59.024154012607" lon="12.229095456693">
        <ele>85</ele>
        <time>2017-04-07T10:08:13Z</time>
      </trkpt>
      <trkpt lat="59.024310921775" lon="12.228907702133">
        <ele>81.2</ele>
        <time>2017-04-07T10:08:26Z</time>
      </trkpt>
      <trkpt lat="59.024470429332" lon="12.228732688061">
        <ele>82.4</ele>
        <time>2017-04-07T10:08:39Z</time>
      </trkpt>
      <trkpt lat="59.024633122011" lon="12.22854585551">
        <ele>83.2</ele>
        <time>2017-04-07T10:08:53Z</time>
      </trkpt>
      <trkpt lat="59.024779469985" lon="12.228332368517">
        <ele>83.8</ele>
        <time>2017-04-07T10:09:07Z</time>
      </trkpt>
      <trkpt lat="59.02486119351" lon="12.228238575056">
        <ele>82.2</ele>
        <time>2017-04-07T10:09:15Z</time>
      </trkpt>
      <trkpt lat="59.025030172614" lon="12.228380312985">
        <ele>83.8</ele>
        <time>2017-04-07T10:09:27Z</time>
      </trkpt>
      <trkpt lat="59.02517970571" lon="12.228598074747">
        <ele>87.8</ele>
        <time>2017-04-07T10:09:40Z</time>
      </trkpt>
      <trkpt lat="59.025367376451" lon="12.228645181025">
        <ele>85.4</ele>
        <time>2017-04-07T10:09:55Z</time>
      </trkpt>
      <trkpt lat="59.025548341672" lon="12.228630345062">
        <ele>86.4</ele>
        <time>2017-04-07T10:10:07Z</time>
      </trkpt>
      <trkpt lat="59.025725535038" lon="12.228744422721">
        <ele>95.6</ele>
        <time>2017-04-07T10:10:19Z</time>
      </trkpt>
      <trkpt lat="59.0258846235" lon="12.228908288866">
        <ele>95.2</ele>
        <time>2017-04-07T10:10:32Z</time>
      </trkpt>
      <trkpt lat="59.026067935653" lon="12.22889705712">
        <ele>88.6</ele>
        <time>2017-04-07T10:10:50Z</time>
      </trkpt>
      <trkpt lat="59.026220905328" lon="12.228702094126">
        <ele>82.6</ele>
        <time>2017-04-07T10:11:07Z</time>
      </trkpt>
      <trkpt lat="59.02635987723" lon="12.228451559135">
        <ele>82</ele>
        <time>2017-04-07T10:11:21Z</time>
      </trkpt>
      <trkpt lat="59.026537908786" lon="12.228407973255">
        <ele>85.8</ele>
        <time>2017-04-07T10:11:34Z</time>
      </trkpt>
      <trkpt lat="59.026725244251" lon="12.228426497254">
        <ele>90.8</ele>
        <time>2017-04-07T10:11:46Z</time>
      </trkpt>
      <trkpt lat="59.026912831173" lon="12.228501515259">
        <ele>92.8</ele>
        <time>2017-04-07T10:11:59Z</time>
      </trkpt>
      <trkpt lat="59.027028836669" lon="12.228521548">
        <ele>94</ele>
        <time>2017-04-07T10:12:08Z</time>
      </trkpt>
      <trkpt lat="59.027211645908" lon="12.228566139708">
        <ele>94</ele>
        <time>2017-04-07T10:12:20Z</time>
      </trkpt>
      <trkpt lat="59.027399903382" lon="12.228584244612">
        <ele>91.8</ele>
        <time>2017-04-07T10:12:34Z</time>
      </trkpt>
      <trkpt lat="59.027570139771" lon="12.228674852951">
        <ele>90</ele>
        <time>2017-04-07T10:12:48Z</time>
      </trkpt>
      <trkpt lat="59.027591429797" lon="12.229023372353">
        <ele>91</ele>
        <time>2017-04-07T10:13:01Z</time>
      </trkpt>
      <trkpt lat="59.027529319918" lon="12.229376920895">
        <ele>88.2</ele>
        <time>2017-04-07T10:13:14Z</time>
      </trkpt>
      <trkpt lat="59.02745706794" lon="12.229691828878">
        <ele>90.4</ele>
        <time>2017-04-07T10:13:26Z</time>
      </trkpt>
      <trkpt lat="59.027353886751" lon="12.229991984717">
        <ele>89.2</ele>
        <time>2017-04-07T10:13:41Z</time>
      </trkpt>
      <trkpt lat="59.027213406107" lon="12.230248387038">
        <ele>89.6</ele>
        <time>2017-04-07T10:13:55Z</time>
      </trkpt>
      <trkpt lat="59.027079798621" lon="12.230509902318">
        <ele>88</ele>
        <time>2017-04-07T10:14:10Z</time>
      </trkpt>
      <trkpt lat="59.026921715987" lon="12.23073688417">
        <ele>88.2</ele>
        <time>2017-04-07T10:14:23Z</time>
      </trkpt>
      <trkpt lat="59.026785007198" lon="12.230984653134">
        <ele>87.8</ele>
        <time>2017-04-07T10:14:38Z</time>
      </trkpt>
      <trkpt lat="59.026647627857" lon="12.231214233375">
        <ele>90.2</ele>
        <time>2017-04-07T10:14:51Z</time>
      </trkpt>
      <trkpt lat="59.026371947166" lon="12.231300734583">
        <ele>87</ele>
        <time>2017-04-07T10:15:12Z</time>
      </trkpt>
      <trkpt lat="59.026184276425" lon="12.231348427594">
        <ele>85.6</ele>
        <time>2017-04-07T10:15:26Z</time>
      </trkpt>
      <trkpt lat="59.026160136553" lon="12.23135714477">
        <ele>85.6</ele>
        <time>2017-04-07T10:15:28Z</time>
      </trkpt>
      <trkpt lat="59.025982943187" lon="12.23148203508">
        <ele>85</ele>
        <time>2017-04-07T10:15:43Z</time>
      </trkpt>
      <trkpt lat="59.025828716227" lon="12.231690912028">
        <ele>85</ele>
        <time>2017-04-07T10:15:57Z</time>
      </trkpt>
      <trkpt lat="59.025696198388" lon="12.23192879035">
        <ele>83.6</ele>
        <time>2017-04-07T10:16:10Z</time>
      </trkpt>
      <trkpt lat="59.025572313906" lon="12.232189215983">
        <ele>84</ele>
        <time>2017-04-07T10:16:50Z</time>
      </trkpt>
      <trkpt lat="59.025563764368" lon="12.232204806317">
        <ele>84</ele>
        <time>2017-04-07T10:16:51Z</time>
      </trkpt>
      <trkpt lat="59.025546749111" lon="12.232212182389">
        <ele>84</ele>
        <time>2017-04-07T10:16:53Z</time>
      </trkpt>
      <trkpt lat="59.02552084904" lon="12.232335647776">
        <ele>82.2</ele>
        <time>2017-04-07T10:17:33Z</time>
      </trkpt>
      <trkpt lat="59.025497295901" lon="12.232387699375">
        <ele>82</ele>
        <time>2017-04-07T10:17:36Z</time>
      </trkpt>
      <trkpt lat="59.025452788012" lon="12.232731273456">
        <ele>82.8</ele>
        <time>2017-04-07T10:17:50Z</time>
      </trkpt>
      <trkpt lat="59.02543870642" lon="12.233086917473">
        <ele>84.4</ele>
        <time>2017-04-07T10:18:04Z</time>
      </trkpt>
      <trkpt lat="59.025344912959" lon="12.233404423845">
        <ele>87</ele>
        <time>2017-04-07T10:18:17Z</time>
      </trkpt>
      <trkpt lat="59.025185908316" lon="12.233543731023">
        <ele>87.2</ele>
        <time>2017-04-07T10:18:30Z</time>
      </trkpt>
      <trkpt lat="59.025004188724" lon="12.233512717993">
        <ele>86.4</ele>
        <time>2017-04-07T10:18:44Z</time>
      </trkpt>
      <trkpt lat="59.024827833548" lon="12.233481537325">
        <ele>87</ele>
        <time>2017-04-07T10:18:59Z</time>
      </trkpt>
      <trkpt lat="59.024761867995" lon="12.233414314487">
        <ele>87</ele>
        <time>2017-04-07T10:19:56Z</time>
      </trkpt>
      <trkpt lat="59.024623566645" lon="12.233648085678">
        <ele>86</ele>
        <time>2017-04-07T10:20:12Z</time>
      </trkpt>
      <trkpt lat="59.024456012464" lon="12.233765013183">
        <ele>85.6</ele>
        <time>2017-04-07T10:20:25Z</time>
      </trkpt>
      <trkpt lat="59.024284099695" lon="12.233924436921">
        <ele>85</ele>
        <time>2017-04-07T10:20:39Z</time>
      </trkpt>
      <trkpt lat="59.024128447812" lon="12.234128452367">
        <ele>86</ele>
        <time>2017-04-07T10:20:53Z</time>
      </trkpt>
      <trkpt lat="59.023958965794" lon="12.23427320778">
        <ele>85.6</ele>
        <time>2017-04-07T10:21:07Z</time>
      </trkpt>
      <trkpt lat="59.023815048571" lon="12.234493316474">
        <ele>85.4</ele>
        <time>2017-04-07T10:21:21Z</time>
      </trkpt>
      <trkpt lat="59.023766433551" lon="12.23483647146">
        <ele>85.6</ele>
        <time>2017-04-07T10:21:35Z</time>
      </trkpt>
      <trkpt lat="59.02378244298" lon="12.235194713866">
        <ele>84.8</ele>
        <time>2017-04-07T10:21:49Z</time>
      </trkpt>
      <trkpt lat="59.023813204553" lon="12.235561002896">
        <ele>84.8</ele>
        <time>2017-04-07T10:22:03Z</time>
      </trkpt>
      <trkpt lat="59.023908590575" lon="12.235873061033">
        <ele>85.4</ele>
        <time>2017-04-07T10:22:17Z</time>
      </trkpt>
      <trkpt lat="59.023964665486" lon="12.236222670082">
        <ele>89</ele>
        <time>2017-04-07T10:22:31Z</time>
      </trkpt>
      <trkpt lat="59.02401294523" lon="12.236576889176">
        <ele>91.8</ele>
        <time>2017-04-07T10:22:45Z</time>
      </trkpt>
      <trkpt lat="59.024013112868" lon="12.236893808815">
        <ele>92</ele>
        <time>2017-04-07T10:22:58Z</time>
      </trkpt>
      <trkpt lat="59.024155940444" lon="12.236681662926">
        <ele>93.2</ele>
        <time>2017-04-07T10:23:15Z</time>
      </trkpt>
      <trkpt lat="59.024249733905" lon="12.236636400666">
        <ele>95.6</ele>
        <time>2017-04-07T10:23:23Z</time>
      </trkpt>
      <trkpt lat="59.024251410285" lon="12.236690799197">
        <ele>95.2</ele>
        <time>2017-04-07T10:23:25Z</time>
      </trkpt>
      <trkpt lat="59.024157449186" lon="12.237000258945">
        <ele>96</ele>
        <time>2017-04-07T10:23:38Z</time>
      </trkpt>
      <trkpt lat="59.024057117843" lon="12.237317681498">
        <ele>98.8</ele>
        <time>2017-04-07T10:23:52Z</time>
      </trkpt>
      <trkpt lat="59.023955613034" lon="12.237601995546">
        <ele>100.4</ele>
        <time>2017-04-07T10:24:06Z</time>
      </trkpt>
      <trkpt lat="59.023959133432" lon="12.237891003458">
        <ele>103.6</ele>
        <time>2017-04-07T10:24:21Z</time>
      </trkpt>
      <trkpt lat="59.024075641842" lon="12.238184537596">
        <ele>102.6</ele>
        <time>2017-04-07T10:24:36Z</time>
      </trkpt>
      <trkpt lat="59.024187456388" lon="12.238490644584">
        <ele>104.8</ele>
        <time>2017-04-07T10:24:50Z</time>
      </trkpt>
      <trkpt lat="59.024276220709" lon="12.238816616675">
        <ele>106.2</ele>
        <time>2017-04-07T10:25:03Z</time>
      </trkpt>
      <trkpt lat="59.024354842931" lon="12.239059775594">
        <ele>108.2</ele>
        <time>2017-04-07T10:25:14Z</time>
      </trkpt>
      <trkpt lat="59.024520553094" lon="12.239216936219">
        <ele>110.6</ele>
        <time>2017-04-07T10:25:28Z</time>
      </trkpt>
      <trkpt lat="59.024533125944" lon="12.239222887368">
        <ele>110.6</ele>
        <time>2017-04-07T10:25:29Z</time>
      </trkpt>
      <trkpt lat="59.024716019002" lon="12.239166561">
        <ele>113.8</ele>
        <time>2017-04-07T10:25:43Z</time>
      </trkpt>
      <trkpt lat="59.024891787445" lon="12.239073941005">
        <ele>112.4</ele>
        <time>2017-04-07T10:25:58Z</time>
      </trkpt>
      <trkpt lat="59.025064370766" lon="12.238922480072">
        <ele>106.8</ele>
        <time>2017-04-07T10:26:13Z</time>
      </trkpt>
      <trkpt lat="59.025230667662" lon="12.238745035249">
        <ele>106.6</ele>
        <time>2017-04-07T10:26:27Z</time>
      </trkpt>
      <trkpt lat="59.025396713101" lon="12.238600698931">
        <ele>107.8</ele>
        <time>2017-04-07T10:26:41Z</time>
      </trkpt>
      <trkpt lat="59.025573235915" lon="12.238471114757">
        <ele>108.2</ele>
        <time>2017-04-07T10:26:56Z</time>
      </trkpt>
      <trkpt lat="59.025750345462" lon="12.238320492014">
        <ele>109.6</ele>
        <time>2017-04-07T10:27:09Z</time>
      </trkpt>
      <trkpt lat="59.02591144558" lon="12.238157296421">
        <ele>108.4</ele>
        <time>2017-04-07T10:27:23Z</time>
      </trkpt>
      <trkpt lat="59.026091572611" lon="12.238025113858">
        <ele>109.8</ele>
        <time>2017-04-07T10:27:37Z</time>
      </trkpt>
      <trkpt lat="59.026259881163" lon="12.237884717033">
        <ele>111.8</ele>
        <time>2017-04-07T10:27:50Z</time>
      </trkpt>
      <trkpt lat="59.02642274148" lon="12.237710457332">
        <ele>111.6</ele>
        <time>2017-04-07T10:28:06Z</time>
      </trkpt>
      <trkpt lat="59.026521144986" lon="12.237417342289">
        <ele>110.2</ele>
        <time>2017-04-07T10:28:21Z</time>
      </trkpt>
      <trkpt lat="59.026603203787" lon="12.23709204075">
        <ele>111.4</ele>
        <time>2017-04-07T10:28:35Z</time>
      </trkpt>
      <trkpt lat="59.026725244251" lon="12.236808816349">
        <ele>111</ele>
        <time>2017-04-07T10:28:50Z</time>
      </trkpt>
      <trkpt lat="59.026830185639" lon="12.236496003841">
        <ele>110</ele>
        <time>2017-04-07T10:29:05Z</time>
      </trkpt>
      <trkpt lat="59.026944347117" lon="12.236214958734">
        <ele>107.4</ele>
        <time>2017-04-07T10:29:19Z</time>
      </trkpt>
      <trkpt lat="59.027094466946" lon="12.236004740682">
        <ele>107.4</ele>
        <time>2017-04-07T10:29:33Z</time>
      </trkpt>
      <trkpt lat="59.027242742757" lon="12.235811956982">
        <ele>107</ele>
        <time>2017-04-07T10:29:46Z</time>
      </trkpt>
      <trkpt lat="59.027399484287" lon="12.235622861318">
        <ele>104.4</ele>
        <time>2017-04-07T10:29:59Z</time>
      </trkpt>
      <trkpt lat="59.027519010181" lon="12.235355730165">
        <ele>101.4</ele>
        <time>2017-04-07T10:30:13Z</time>
      </trkpt>
      <trkpt lat="59.027556644912" lon="12.235244921447">
        <ele>101.8</ele>
        <time>2017-04-07T10:30:18Z</time>
      </trkpt>
      <trkpt lat="59.027718415582" lon="12.23508038475">
        <ele>102.4</ele>
        <time>2017-04-07T10:30:31Z</time>
      </trkpt>
      <trkpt lat="59.027906505418" lon="12.235027662599">
        <ele>102.6</ele>
        <time>2017-04-07T10:30:45Z</time>
      </trkpt>
      <trkpt lat="59.028088392648" lon="12.234949962386">
        <ele>102.6</ele>
        <time>2017-04-07T10:30:59Z</time>
      </trkpt>
      <trkpt lat="59.028266340385" lon="12.234840997686">
        <ele>103.2</ele>
        <time>2017-04-07T10:31:13Z</time>
      </trkpt>
      <trkpt lat="59.028438923706" lon="12.234686854545">
        <ele>103.4</ele>
        <time>2017-04-07T10:31:27Z</time>
      </trkpt>
      <trkpt lat="59.028603292765" lon="12.23453891401">
        <ele>102.4</ele>
        <time>2017-04-07T10:31:42Z</time>
      </trkpt>
      <trkpt lat="59.028757268268" lon="12.234340849713">
        <ele>102.4</ele>
        <time>2017-04-07T10:31:56Z</time>
      </trkpt>
      <trkpt lat="59.028929600132" lon="12.234218809249">
        <ele>102.6</ele>
        <time>2017-04-07T10:32:11Z</time>
      </trkpt>
      <trkpt lat="59.029112660828" lon="12.234179665776">
        <ele>105.2</ele>
        <time>2017-04-07T10:32:25Z</time>
      </trkpt>
      <trkpt lat="59.029290692384" lon="12.234135157887">
        <ele>105.4</ele>
        <time>2017-04-07T10:32:38Z</time>
      </trkpt>
      <trkpt lat="59.029475597098" lon="12.234079837347">
        <ele>102.4</ele>
        <time>2017-04-07T10:32:52Z</time>
      </trkpt>
      <trkpt lat="59.029666872056" lon="12.234096852604">
        <ele>100.8</ele>
        <time>2017-04-07T10:33:06Z</time>
      </trkpt>
      <trkpt lat="59.029856470634" lon="12.234125183426">
        <ele>100.2</ele>
        <time>2017-04-07T10:33:20Z</time>
      </trkpt>
      <trkpt lat="59.030040118063" lon="12.234100792097">
        <ele>99.6</ele>
        <time>2017-04-07T10:33:34Z</time>
      </trkpt>
      <trkpt lat="59.030211527918" lon="12.233947487146">
        <ele>99</ele>
        <time>2017-04-07T10:33:48Z</time>
      </trkpt>
      <trkpt lat="59.030336502047" lon="12.233679014889">
        <ele>96</ele>
        <time>2017-04-07T10:34:03Z</time>
      </trkpt>
      <trkpt lat="59.030423338531" lon="12.233369806598">
        <ele>94</ele>
        <time>2017-04-07T10:34:17Z</time>
      </trkpt>
      <trkpt lat="59.0304443771" lon="12.233169060093">
        <ele>93.2</ele>
        <time>2017-04-07T10:34:25Z</time>
      </trkpt>
      <trkpt lat="59.030359133177" lon="12.232855660852">
        <ele>91.6</ele>
        <time>2017-04-07T10:34:41Z</time>
      </trkpt>
      <trkpt lat="59.030365754878" lon="12.232168931785">
        <ele>89.6</ele>
        <time>2017-04-07T10:35:07Z</time>
      </trkpt>
      <trkpt lat="59.030384949429" lon="12.231829967749">
        <ele>89.4</ele>
        <time>2017-04-07T10:35:24Z</time>
      </trkpt>
      <trkpt lat="59.030199541801" lon="12.231775736856">
        <ele>88.8</ele>
        <time>2017-04-07T10:35:41Z</time>
      </trkpt>
      <trkpt lat="59.030027293756" lon="12.2316060872">
        <ele>88.4</ele>
        <time>2017-04-07T10:35:56Z</time>
      </trkpt>
      <trkpt lat="59.029916568857" lon="12.231330238871">
        <ele>87</ele>
        <time>2017-04-07T10:36:09Z</time>
      </trkpt>
      <trkpt lat="59.029799557533" lon="12.231063107718">
        <ele>86.2</ele>
        <time>2017-04-07T10:36:23Z</time>
      </trkpt>
      <trkpt lat="59.029623705271" lon="12.230996974527">
        <ele>85.8</ele>
        <time>2017-04-07T10:36:37Z</time>
      </trkpt>
      <trkpt lat="59.029461599325" lon="12.231151201487">
        <ele>82.6</ele>
        <time>2017-04-07T10:36:52Z</time>
      </trkpt>
      <trkpt lat="59.029281556113" lon="12.231244575853">
        <ele>81.4</ele>
        <time>2017-04-07T10:37:03Z</time>
      </trkpt>
      <trkpt lat="59.02913596251" lon="12.231438030105">
        <ele>87.6</ele>
        <time>2017-04-07T10:37:20Z</time>
      </trkpt>
      <trkpt lat="59.029069577862" lon="12.231758973056">
        <ele>88.8</ele>
        <time>2017-04-07T10:37:34Z</time>
      </trkpt>
      <trkpt lat="59.028925325363" lon="12.231965335434">
        <ele>89.6</ele>
        <time>2017-04-07T10:37:48Z</time>
      </trkpt>
      <trkpt lat="59.028894815247" lon="12.232001042328">
        <ele>90</ele>
        <time>2017-04-07T10:37:51Z</time>
      </trkpt>
      <trkpt lat="59.02877470262" lon="12.231761403807">
        <ele>90.4</ele>
        <time>2017-04-07T10:38:06Z</time>
      </trkpt>
      <trkpt lat="59.028659200038" lon="12.231476586845">
        <ele>91</ele>
        <time>2017-04-07T10:38:20Z</time>
      </trkpt>
      <trkpt lat="59.028540428515" lon="12.231199984145">
        <ele>91.6</ele>
        <time>2017-04-07T10:38:34Z</time>
      </trkpt>
      <trkpt lat="59.02841763368" lon="12.23092044778">
        <ele>91.6</ele>
        <time>2017-04-07T10:38:48Z</time>
      </trkpt>
      <trkpt lat="59.02828939061" lon="12.230657004663">
        <ele>88</ele>
        <time>2017-04-07T10:39:02Z</time>
      </trkpt>
      <trkpt lat="59.028169613259" lon="12.230369002579">
        <ele>90</ele>
        <time>2017-04-07T10:39:17Z</time>
      </trkpt>
      <trkpt lat="59.028042208379" lon="12.230110085688">
        <ele>87</ele>
        <time>2017-04-07T10:39:30Z</time>
      </trkpt>
      <trkpt lat="59.027917653345" lon="12.229846558752">
        <ele>88.2</ele>
        <time>2017-04-07T10:39:43Z</time>
      </trkpt>
      <trkpt lat="59.027799720012" lon="12.229554114261">
        <ele>88.8</ele>
        <time>2017-04-07T10:39:58Z</time>
      </trkpt>
      <trkpt lat="59.027636943514" lon="12.229377088533">
        <ele>88.8</ele>
        <time>2017-04-07T10:40:13Z</time>
      </trkpt>
      <trkpt lat="59.027567206106" lon="12.229051116442">
        <ele>87.4</ele>
        <time>2017-04-07T10:40:27Z</time>
      </trkpt>
      <trkpt lat="59.027621856094" lon="12.228725731084">
        <ele>85.4</ele>
        <time>2017-04-07T10:40:40Z</time>
      </trkpt>
      <trkpt lat="59.027804246238" lon="12.228715505166">
        <ele>87.8</ele>
        <time>2017-04-07T10:40:52Z</time>
      </trkpt>
      <trkpt lat="59.027832660879" lon="12.22871936084">
        <ele>88</ele>
        <time>2017-04-07T10:40:54Z</time>
      </trkpt>
      <trkpt lat="59.028005998571" lon="12.228853303602">
        <ele>89.6</ele>
        <time>2017-04-07T10:41:06Z</time>
      </trkpt>
      <trkpt lat="59.028167685422" lon="12.229017421204">
        <ele>89</ele>
        <time>2017-04-07T10:41:20Z</time>
      </trkpt>
      <trkpt lat="59.028350829937" lon="12.229133259062">
        <ele>91.6</ele>
        <time>2017-04-07T10:41:33Z</time>
      </trkpt>
      <trkpt lat="59.028535399375" lon="12.229184640109">
        <ele>96.4</ele>
        <time>2017-04-07T10:41:46Z</time>
      </trkpt>
      <trkpt lat="59.028715861682" lon="12.229169133594">
        <ele>91.6</ele>
        <time>2017-04-07T10:42:01Z</time>
      </trkpt>
      <trkpt lat="59.028890205202" lon="12.229074166667">
        <ele>90.8</ele>
        <time>2017-04-07T10:42:15Z</time>
      </trkpt>
      <trkpt lat="59.029059854858" lon="12.228897811491">
        <ele>92.8</ele>
        <time>2017-04-07T10:42:30Z</time>
      </trkpt>
      <trkpt lat="59.029228079591" lon="12.228723048876">
        <ele>90</ele>
        <time>2017-04-07T10:42:44Z</time>
      </trkpt>
      <trkpt lat="59.029412649029" lon="12.228707207085">
        <ele>92</ele>
        <time>2017-04-07T10:42:58Z</time>
      </trkpt>
      <trkpt lat="59.029586405816" lon="12.228586004811">
        <ele>90.6</ele>
        <time>2017-04-07T10:43:12Z</time>
      </trkpt>
      <trkpt lat="59.029708278642" lon="12.22834049896">
        <ele>90.6</ele>
        <time>2017-04-07T10:43:27Z</time>
      </trkpt>
      <trkpt lat="59.029828642726" lon="12.228087952313">
        <ele>89.8</ele>
        <time>2017-04-07T10:43:41Z</time>
      </trkpt>
      <trkpt lat="59.029942468928" lon="12.227811517251">
        <ele>83.4</ele>
        <time>2017-04-07T10:43:56Z</time>
      </trkpt>
      <trkpt lat="59.029987312093" lon="12.227455454139">
        <ele>83.2</ele>
        <time>2017-04-07T10:44:11Z</time>
      </trkpt>
      <trkpt lat="59.030020420598" lon="12.227107186194">
        <ele>83.4</ele>
        <time>2017-04-07T10:44:25Z</time>
      </trkpt>
      <trkpt lat="59.030046907402" lon="12.226736790033">
        <ele>84</ele>
        <time>2017-04-07T10:44:39Z</time>
      </trkpt>
      <trkpt lat="59.030083284848" lon="12.226393551228">
        <ele>85.2</ele>
        <time>2017-04-07T10:44:52Z</time>
      </trkpt>
      <trkpt lat="59.030164337821" lon="12.226069590793">
        <ele>85.6</ele>
        <time>2017-04-07T10:45:06Z</time>
      </trkpt>
      <trkpt lat="59.030231309202" lon="12.225746636186">
        <ele>86.2</ele>
        <time>2017-04-07T10:45:20Z</time>
      </trkpt>
      <trkpt lat="59.030226112424" lon="12.225720903753">
        <ele>85.8</ele>
        <time>2017-04-07T10:45:22Z</time>
      </trkpt>
      <trkpt lat="59.030055708397" lon="12.225595259072">
        <ele>89.6</ele>
        <time>2017-04-07T10:45:42Z</time>
      </trkpt>
      <trkpt lat="59.029893267175" lon="12.225427201977">
        <ele>86.6</ele>
        <time>2017-04-07T10:46:02Z</time>
      </trkpt>
      <trkpt lat="59.02978807433" lon="12.225290660826">
        <ele>90</ele>
        <time>2017-04-07T10:46:13Z</time>
      </trkpt>
    </trkseg>
  </trk>
</gpx>